Time;durP1;ratioP1;P1;durP2;ratioP2;P2;SDS_P1;SDS_P2;PMS_P1;PMS_P2;Temp;Humidity;BMP_temperature;BMP_pressure;BME280_temperature;BME280_humidity;BME280_pressure;Samples;Min_cycle;Max_cycle;Signal;HPM_P1;HPM_P2
2022/06/13 00:01:19;;;;;;;;;;;;;;;12.79;93.67;98188.82;1781030;80;20261;-88
2022/06/13 00:03:44;;;;;;;;;;;;;;;12.73;94.36;98190.52;1780453;79;20171;-88
2022/06/13 00:06:10;;;;;;;;;;;;;;;12.71;94.15;98182.66;1780589;80;20746;-88
2022/06/13 00:08:36;;;;;;;;;;;;;;;12.65;94.61;98177.84;1781797;80;20182;-84
2022/06/13 00:11:02;;;;;;;;;;;;;;;12.60;92.46;98179.25;1781821;80;21127;-88
2022/06/13 00:13:28;;;;;;;;;;;;;;;12.53;93.84;98182.05;1783144;80;20285;-84
2022/06/13 00:15:54;;;;;;;;;;;;;;;12.49;93.06;98168.79;1777343;80;20222;-88
2022/06/13 00:18:20;;;;;;;;;;;;;;;12.45;94.46;98174.52;1753611;80;20166;-84
2022/06/13 00:20:45;;;;;;;;;;;;;;;12.39;96.67;98168.32;1777360;80;20168;-84
2022/06/13 00:23:11;;;;;;;;;;;;;;;12.40;95.83;98165.89;1740059;81;21166;-88
2022/06/13 00:25:37;;;;;;;;;;;;;;;12.37;95.38;98169.97;1777176;80;20226;-87
2022/06/13 00:28:03;;;;;;;;;;;;;;;12.34;96.80;98158.33;1781513;79;20182;-84
2022/06/13 00:30:29;;;;;;;;;;;;;;;12.32;95.93;98154.29;1781787;80;20203;-84
2022/06/13 00:32:55;;;;;;;;;;;;;;;12.28;97.33;98155.95;1781753;80;20182;-88
2022/06/13 00:35:21;;;;;;;;;;;;;;;12.31;97.07;98157.56;1781160;80;21291;-88
2022/06/13 00:37:47;;;;;;;;;;;;;;;12.32;96.60;98151.57;1781419;80;20206;-88
2022/06/13 00:40:12;;;;;;;;;;;;;;;12.33;97.54;98159.98;1774200;80;20690;-88
2022/06/13 00:42:39;;;;;;;;;;;;;;;12.37;97.23;98154.22;1781522;79;20257;-88
2022/06/13 00:45:08;;;;;;;;;;;;;;;12.39;96.55;98149.30;1781760;80;20511;-84
2022/06/13 00:47:34;;;;;;;;;;;;;;;12.39;94.69;98149.30;1781901;79;21120;-84
2022/06/13 00:50:00;;;;;;;;;;;;;;;12.32;93.23;98148.86;1763634;80;20158;-88
2022/06/13 00:52:32;;;;;;;;;;;;;;;12.19;94.82;98148.97;1770749;79;20214;-88
2022/06/13 00:54:58;;;;;;;;;;;;;;;12.14;93.82;98150.39;1781799;80;20169;-88
2022/06/13 00:57:25;;;;;;;;;;;;;;;12.05;91.66;98148.84;1781444;79;20290;-84
2022/06/13 00:59:53;;;;;;;;;;;;;;;11.98;94.92;98143.48;1782022;80;20998;-87
2022/06/13 01:02:19;;;;;;;;;;;;;;;11.98;92.29;98140.77;1781626;79;20164;-84
2022/06/13 01:04:46;;;;;;;;;;;;;;;11.92;92.25;98133.20;1781757;80;20273;-88
2022/06/13 01:07:12;;;;;;;;;;;;;;;11.90;93.84;98125.90;1781790;79;20893;-88
2022/06/13 01:12:23;;;;;;;;;;;;;;;11.96;94.88;98118.49;1758384;80;21031;-86
2022/06/13 01:14:52;;;;;;;;;;;;;;;11.94;96.13;98117.98;1775099;80;20186;-89
2022/06/13 01:17:25;;;;;;;;;;;;;;;11.96;98.63;98113.06;1780363;80;20223;-88
2022/06/13 01:20:03;;;;;;;;;;;;;;;11.99;98.89;98109.24;1756834;80;20706;-84
2022/06/13 01:22:51;;;;;;;;;;;;;;;12.04;97.45;98106.46;1771778;80;20196;-88
2022/06/13 01:25:39;;;;;;;;;;;;;;;12.09;98.27;98098.83;1781956;80;20965;-83
2022/06/13 01:28:23;;;;;;;;;;;;;;;12.06;97.53;98102.94;1781202;80;20233;-84
2022/06/13 01:30:55;;;;;;;;;;;;;;;12.06;97.07;98097.50;1745778;80;20205;-83
2022/06/13 01:33:40;;;;;;;;;;;;;;;12.04;95.42;98108.37;1781544;79;20180;-85
2022/06/13 01:36:34;;;;;;;;;;;;;;;11.97;98.28;98096.51;1779934;80;20486;-87
2022/06/13 01:39:25;;;;;;;;;;;;;;;11.94;99.13;98103.05;1781528;80;21182;-84
2022/06/13 01:42:07;;;;;;;;;;;;;;;11.85;98.71;98094.70;1779905;79;20164;-84
2022/06/13 01:44:54;;;;;;;;;;;;;;;11.81;98.84;98090.95;1781308;80;20192;-84
2022/06/13 01:47:39;;;;;;;;;;;;;;;11.77;98.13;98088.50;1781432;79;20204;-84
2022/06/13 01:50:26;;;;;;;;;;;;;;;11.72;97.06;98085.86;1764844;80;20188;-88
2022/06/13 01:53:02;;;;;;;;;;;;;;;11.70;96.93;98090.73;1782514;79;20955;-87
2022/06/13 01:55:46;;;;;;;;;;;;;;;11.66;98.10;98082.36;1780962;80;20184;-87
2022/06/13 01:58:37;;;;;;;;;;;;;;;11.64;97.60;98085.11;1727371;82;20182;-84
2022/06/13 02:01:21;;;;;;;;;;;;;;;11.57;97.30;98086.78;1778191;80;20478;-87
2022/06/13 02:03:49;;;;;;;;;;;;;;;11.48;97.61;98079.80;1781041;80;20187;-88
2022/06/13 02:06:30;;;;;;;;;;;;;;;11.47;97.03;98073.31;1757520;80;21064;-84
2022/06/13 02:09:07;;;;;;;;;;;;;;;11.43;97.37;98070.88;1780506;80;20156;-84
2022/06/13 02:11:36;;;;;;;;;;;;;;;11.43;97.81;98070.34;1775554;80;20129;-83
2022/06/13 02:14:08;;;;;;;;;;;;;;;11.50;97.67;98072.18;1765133;80;20644;-88
2022/06/13 02:16:37;;;;;;;;;;;;;;;11.54;99.17;98072.44;1781389;80;20216;-84
2022/06/13 02:19:07;;;;;;;;;;;;;;;11.60;98.64;98060.42;1781587;80;21116;-84
2022/06/13 02:21:42;;;;;;;;;;;;;;;11.62;98.06;98058.78;1781417;79;20128;-83
2022/06/13 02:24:10;;;;;;;;;;;;;;;11.62;98.09;98063.66;1775070;80;20197;-87
2022/06/13 02:26:36;;;;;;;;;;;;;;;11.61;98.19;98061.23;1781135;79;20145;-83
2022/06/13 02:29:11;;;;;;;;;;;;;;;11.55;97.53;98061.30;1780556;80;20151;-84
2022/06/13 02:31:41;;;;;;;;;;;;;;;11.52;97.18;98054.25;1746456;80;21139;-84
2022/06/13 02:34:19;;;;;;;;;;;;;;;11.47;96.97;98060.55;1760060;80;20201;-85
2022/06/13 02:36:49;;;;;;;;;;;;;;;11.41;96.79;98054.89;1790322;78;20180;-88
2022/06/13 02:39:24;;;;;;;;;;;;;;;11.35;96.75;98049.23;1790179;80;20231;-84
2022/06/13 02:41:53;;;;;;;;;;;;;;;11.30;97.74;98046.58;1790555;80;20172;-88
2022/06/13 02:44:26;;;;;;;;;;;;;;;11.26;98.25;98046.32;1789063;80;21146;-83
2022/06/13 02:46:54;;;;;;;;;;;;;;;11.30;98.64;98048.75;1774719;80;20208;-87
2022/06/13 02:49:36;;;;;;;;;;;;;;;11.33;98.56;98054.69;1763343;80;21125;-84
2022/06/13 02:52:15;;;;;;;;;;;;;;;11.29;97.45;98044.97;1789561;80;20192;-88
2022/06/13 02:54:46;;;;;;;;;;;;;;;11.28;97.33;98048.78;1790151;80;20152;-84
2022/06/13 02:57:24;;;;;;;;;;;;;;;11.25;97.69;98039.28;1770093;80;21273;-84
2022/06/13 03:00:18;;;;;;;;;;;;;;;11.24;97.51;98040.92;1763436;80;20201;-84
2022/06/13 03:02:48;;;;;;;;;;;;;;;11.23;96.79;98040.12;1758761;80;20198;-84
2022/06/13 03:05:49;;;;;;;;;;;;;;;11.16;96.33;98042.34;1776316;80;20207;-88
2022/06/13 03:08:25;;;;;;;;;;;;;;;11.14;95.77;98038.30;1790560;80;20211;-88
2022/06/13 03:11:11;;;;;;;;;;;;;;;11.11;97.72;98038.33;1785797;80;21259;-88
2022/06/13 03:13:46;;;;;;;;;;;;;;;11.15;97.81;98039.37;1790704;80;20183;-87
2022/06/13 03:16:25;;;;;;;;;;;;;;;11.15;96.99;98038.01;1767496;80;20163;-84
2022/06/13 03:18:53;;;;;;;;;;;;;;;11.16;98.13;98042.34;1774704;80;20132;-84
2022/06/13 03:21:36;;;;;;;;;;;;;;;11.22;99.13;98038.50;1790830;80;20187;-83
2022/06/13 03:24:12;;;;;;;;;;;;;;;11.29;98.49;98042.25;1788582;80;21158;-88
2022/06/13 03:26:41;;;;;;;;;;;;;;;11.33;98.03;98031.63;1771553;80;20203;-84
2022/06/13 03:29:19;;;;;;;;;;;;;;;11.40;97.37;98024.80;1784261;80;20179;-88
2022/06/13 03:31:48;;;;;;;;;;;;;;;11.51;96.13;98029.58;1790549;78;20164;-87
2022/06/13 03:34:20;;;;;;;;;;;;;;;11.54;95.90;98029.83;1787289;79;20458;-83
2022/06/13 03:37:07;;;;;;;;;;;;;;;11.66;95.25;98024.56;1758890;80;21304;-87
2022/06/13 03:39:35;;;;;;;;;;;;;;;11.76;95.44;98030.69;1767554;80;20522;-86
2022/06/13 03:42:39;;;;;;;;;;;;;;;12.03;94.09;98026.09;1790651;80;20501;-87
2022/06/13 03:45:08;;;;;;;;;;;;;;;12.31;93.50;98030.41;1790522;80;20742;-83
2022/06/13 03:47:41;;;;;;;;;;;;;;;12.56;94.34;98030.09;1765582;80;20443;-87
2022/06/13 03:50:14;;;;;;;;;;;;;;;12.76;93.69;98015.95;1764759;80;21031;-87
2022/06/13 03:52:43;;;;;;;;;;;;;;;12.94;93.21;98017.30;1771347;80;20201;-87
2022/06/13 03:55:12;;;;;;;;;;;;;;;13.11;91.42;98018.69;1781298;80;20203;-87
2022/06/13 03:57:54;;;;;;;;;;;;;;;13.17;91.65;98009.35;1792175;78;20141;-86
2022/06/13 04:00:23;;;;;;;;;;;;;;;13.22;91.73;98004.65;1790516;80;20450;-87
2022/06/13 04:02:49;;;;;;;;;;;;;;;13.37;90.24;97998.16;1790388;80;21065;-87
2022/06/13 04:05:24;;;;;;;;;;;;;;;13.45;89.92;97996.66;1790305;80;20184;-87
2022/06/13 04:07:50;;;;;;;;;;;;;;;13.51;90.07;97997.64;1776994;78;20466;-83
2022/06/13 04:10:16;;;;;;;;;;;;;;;13.69;89.88;98000.05;1789318;80;20302;-84
2022/06/13 04:12:57;;;;;;;;;;;;;;;13.81;89.27;97994.10;1790646;78;20178;-83
2022/06/13 04:15:30;;;;;;;;;;;;;;;13.93;89.51;98003.13;1789776;80;21145;-87
2022/06/13 04:18:08;;;;;;;;;;;;;;;14.12;88.51;98002.50;1758815;80;20244;-83
2022/06/13 04:20:54;;;;;;;;;;;;;;;14.25;87.62;98003.03;1781522;80;20204;-87
2022/06/13 04:23:26;;;;;;;;;;;;;;;14.29;87.87;97997.25;1790477;80;20203;-83
2022/06/13 04:26:01;;;;;;;;;;;;;;;14.48;87.75;97989.53;1787838;80;20159;-83
2022/06/13 04:28:40;;;;;;;;;;;;;;;14.60;86.56;97985.14;1758679;81;21050;-87
2022/06/13 04:31:06;;;;;;;;;;;;;;;14.74;86.61;97978.30;1747582;80;20208;-83
2022/06/13 04:33:36;;;;;;;;;;;;;;;14.79;85.59;97969.22;1782243;80;20238;-88
2022/06/13 04:36:02;;;;;;;;;;;;;;;14.84;86.11;97969.88;1790561;80;20195;-84
2022/06/13 04:38:28;;;;;;;;;;;;;;;14.99;85.55;97974.74;1792106;80;20257;-88
2022/06/13 04:40:56;;;;;;;;;;;;;;;15.20;84.49;97981.30;1764958;80;21095;-83
2022/06/13 04:43:23;;;;;;;;;;;;;;;15.25;83.97;97975.73;1757432;80;20154;-88
2022/06/13 04:45:52;;;;;;;;;;;;;;;15.36;84.39;97974.34;1781759;80;20496;-84
2022/06/13 04:48:17;;;;;;;;;;;;;;;15.46;84.17;97978.18;1790418;78;20168;-87
2022/06/13 04:50:49;;;;;;;;;;;;;;;15.63;84.20;97965.77;1790357;80;20206;-84
2022/06/13 04:53:25;;;;;;;;;;;;;;;15.85;83.85;97976.66;1790099;78;21072;-84
2022/06/13 04:55:51;;;;;;;;;;;;;;;16.06;84.36;97972.26;1767974;80;20162;-86
2022/06/13 04:58:35;;;;;;;;;;;;;;;16.29;84.33;97970.78;1790421;78;20218;-84
2022/06/13 05:01:04;;;;;;;;;;;;;;;16.45;81.83;97977.41;1778904;80;20687;-84
2022/06/13 05:03:32;;;;;;;;;;;;;;;16.60;80.99;97973.42;1789610;80;20167;-83
2022/06/13 05:06:01;;;;;;;;;;;;;;;16.69;79.84;97974.27;1767175;79;21079;-84
2022/06/13 05:08:29;;;;;;;;;;;;;;;16.75;79.28;97970.26;1788041;79;20156;-88
2022/06/13 05:10:58;;;;;;;;;;;;;;;16.85;78.44;97960.92;1790910;78;20175;-87
2022/06/13 05:13:24;;;;;;;;;;;;;;;16.90;78.29;97961.55;1780744;78;20162;-84
2022/06/13 05:15:54;;;;;;;;;;;;;;;17.04;77.49;97962.77;1778593;80;20176;-85
2022/06/13 05:18:33;;;;;;;;;;;;;;;17.12;77.71;97957.05;1788365;80;21194;-84
2022/06/13 05:21:05;;;;;;;;;;;;;;;17.32;77.66;97959.09;1789814;79;20179;-86
2022/06/13 05:23:51;;;;;;;;;;;;;;;17.49;77.90;97959.06;1790514;80;20199;-88
2022/06/13 05:26:17;;;;;;;;;;;;;;;17.64;77.87;97950.08;1782822;80;20210;-89
2022/06/13 05:28:42;;;;;;;;;;;;;;;17.93;77.89;97945.23;1790305;80;20249;-88
2022/06/13 05:31:11;;;;;;;;;;;;;;;18.07;78.25;97941.72;1786461;78;21138;-84
2022/06/13 05:33:38;;;;;;;;;;;;;;;18.29;78.34;97937.89;1787099;78;20230;-89
2022/06/13 05:36:05;;;;;;;;;;;;;;;18.46;76.98;97939.73;1791844;78;20485;-89
2022/06/13 05:38:35;;;;;;;;;;;;;;;18.59;75.87;97939.45;1822818;78;20161;-85
2022/06/13 05:41:01;;;;;;;;;;;;;;;18.75;73.20;97942.44;1764908;80;20192;-89
2022/06/13 05:43:26;;;;;;;;;;;;;;;19.00;74.44;97935.70;1758529;81;21049;-84
2022/06/13 05:45:52;;;;;;;;;;;;;;;19.08;75.12;97932.88;1780303;78;20217;-85
2022/06/13 05:48:20;;;;;;;;;;;;;;;19.17;74.31;97934.17;1767510;78;20188;-89
2022/06/13 05:50:46;;;;;;;;;;;;;;;19.20;73.80;97925.23;1737331;81;20647;-84
2022/06/13 05:53:13;;;;;;;;;;;;;;;19.44;73.08;97918.45;1720794;81;20224;-84
2022/06/13 05:55:40;;;;;;;;;;;;;;;19.76;74.28;97916.59;1740755;81;21079;-89
2022/06/13 05:58:06;;;;;;;;;;;;;;;20.04;73.19;97916.14;1719615;82;20172;-89
2022/06/13 06:00:37;;;;;;;;;;;;;;;20.21;72.77;97916.48;1720357;82;20268;-85
2022/06/13 06:03:03;;;;;;;;;;;;;;;20.46;71.88;97918.08;1716431;82;20169;-84
2022/06/13 06:05:29;;;;;;;;;;;;;;;20.69;70.26;97922.52;1708630;82;20128;-89
2022/06/13 06:07:56;;;;;;;;;;;;;;;20.95;72.01;97909.70;1706025;82;21021;-85
2022/06/13 06:10:25;;;;;;;;;;;;;;;21.15;70.67;97905.70;1724390;82;20301;-89
2022/06/13 06:12:51;;;;;;;;;;;;;;;21.27;69.68;97902.33;1742134;80;20177;-89
2022/06/13 06:15:16;;;;;;;;;;;;;;;21.34;68.37;97906.66;1766222;79;20189;-89
2022/06/13 06:17:42;;;;;;;;;;;;;;;21.65;68.89;97901.77;1778498;80;20223;-84
2022/06/13 06:20:16;;;;;;;;;;;;;;;21.92;67.73;97902.03;1777547;80;21160;-85
2022/06/13 06:22:42;;;;;;;;;;;;;;;22.12;67.19;97903.72;1754224;79;20265;-84
2022/06/13 06:25:08;;;;;;;;;;;;;;;22.38;67.41;97899.00;1741225;80;20243;-84
2022/06/13 06:27:34;;;;;;;;;;;;;;;22.39;65.12;97894.27;1763516;79;20153;-84
2022/06/13 06:30:00;;;;;;;;;;;;;;;22.51;65.35;97892.20;1746242;80;20785;-84
2022/06/13 06:32:25;;;;;;;;;;;;;;;22.66;63.52;97894.70;1770603;79;21145;-84
2022/06/13 06:34:51;;;;;;;;;;;;;;;22.91;61.09;97895.25;1771203;78;20199;-84
2022/06/13 06:37:17;;;;;;;;;;;;;;;23.20;63.14;97888.31;1772743;78;20289;-84
2022/06/13 06:39:43;;;;;;;;;;;;;;;23.39;63.92;97886.09;1771773;79;20234;-84
2022/06/13 06:42:09;;;;;;;;;;;;;;;23.62;60.11;97886.14;1731896;80;20185;-85
2022/06/13 06:44:35;;;;;;;;;;;;;;;23.78;58.90;97877.14;1758980;79;21107;-84
2022/06/13 06:47:01;;;;;;;;;;;;;;;23.58;57.76;97876.35;1776794;79;20262;-84
2022/06/13 06:49:27;;;;;;;;;;;;;;;23.64;60.36;97877.69;1743976;80;20617;-85
2022/06/13 06:51:53;;;;;;;;;;;;;;;23.42;58.79;97876.28;1776085;80;20755;-84
2022/06/13 06:59:54;;;;;;;;;;;;;;;23.40;60.66;97881.36;1761854;80;20604;-85
2022/06/13 07:02:23;;;;;;;;;;;;;;;23.48;59.26;97878.35;1769898;78;20691;-91
2022/06/13 07:04:47;;;;;;;;;;;;;;;23.79;59.41;97876.55;1770765;80;21481;-90
2022/06/13 07:07:13;;;;;;;;;;;;;;;24.08;58.85;97879.17;1770797;79;20679;-90
2022/06/13 07:09:39;;;;;;;;;;;;;;;24.17;58.99;97880.50;1759225;79;20998;-89
2022/06/13 07:12:05;;;;;;;;;;;;;;;24.27;57.77;97876.33;1770039;79;20762;-88
2022/06/13 07:14:33;;;;;;;;;;;;;;;24.37;57.82;97875.70;1770390;79;20223;-90
2022/06/13 07:17:01;;;;;;;;;;;;;;;24.37;56.44;97872.94;1769667;79;20399;-89
2022/06/13 07:19:26;;;;;;;;;;;;;;;24.57;56.64;97872.20;1757926;80;20433;-85
2022/06/13 07:21:53;;;;;;;;;;;;;;;24.90;55.60;97878.38;1764523;79;21147;-85
2022/06/13 07:24:20;;;;;;;;;;;;;;;25.06;51.77;97880.97;1764516;79;20187;-88
2022/06/13 07:26:47;;;;;;;;;;;;;;;25.27;54.25;97883.96;1768418;79;20474;-90
2022/06/13 07:29:13;;;;;;;;;;;;;;;25.56;55.35;97889.81;1763593;78;20843;-85
2022/06/13 07:31:40;;;;;;;;;;;;;;;25.60;54.62;97896.98;1767350;79;20207;-85
2022/06/13 07:34:09;;;;;;;;;;;;;;;25.44;56.61;97899.78;1771846;78;21085;-91
2022/06/13 07:36:35;;;;;;;;;;;;;;;25.07;56.66;97896.42;1774085;79;20149;-91
2022/06/13 07:39:01;;;;;;;;;;;;;;;24.89;56.13;97898.95;1771179;79;20301;-91
2022/06/13 07:41:27;;;;;;;;;;;;;;;24.82;56.18;97894.70;1779213;79;20230;-91
2022/06/13 07:43:53;;;;;;;;;;;;;;;24.54;56.13;97899.87;1777385;79;20191;-90
2022/06/13 07:46:20;;;;;;;;;;;;;;;24.76;56.48;97896.98;1758115;80;21063;-91
2022/06/13 07:48:48;;;;;;;;;;;;;;;24.72;55.88;97900.91;1773825;79;20169;-91
2022/06/13 07:51:13;;;;;;;;;;;;;;;24.55;54.82;97905.61;1777366;79;20243;-91
2022/06/13 07:53:39;;;;;;;;;;;;;;;24.40;54.98;97898.48;1781558;79;20155;-91
2022/06/13 07:56:05;;;;;;;;;;;;;;;24.45;54.47;97900.14;1773704;78;20548;-90
2022/06/13 07:58:33;;;;;;;;;;;;;;;24.88;53.54;97893.78;1775080;78;21380;-90
2022/06/13 08:00:59;;;;;;;;;;;;;;;25.73;53.04;97893.97;1755641;79;20237;-91
2022/06/13 08:03:28;;;;;;;;;;;;;;;25.80;50.17;97894.80;1758230;78;21346;-90
2022/06/13 08:05:54;;;;;;;;;;;;;;;25.84;49.54;97890.09;1756607;80;20421;-89
2022/06/13 08:08:20;;;;;;;;;;;;;;;26.53;50.92;97887.23;1735484;81;20751;-91
2022/06/13 08:10:46;;;;;;;;;;;;;;;26.55;49.85;97882.08;1780315;78;21224;-91
2022/06/13 08:13:12;;;;;;;;;;;;;;;26.54;46.50;97875.73;1785245;78;20642;-91
2022/06/13 08:15:38;;;;;;;;;;;;;;;26.99;45.83;97877.72;1774235;78;20129;-92
2022/06/13 08:18:04;;;;;;;;;;;;;;;27.14;45.80;97874.42;1772383;79;20195;-91
2022/06/13 08:20:30;;;;;;;;;;;;;;;27.69;46.67;97867.23;1772284;79;20575;-91
2022/06/13 08:22:58;;;;;;;;;;;;;;;27.38;44.89;97863.17;1771229;79;21161;-90
2022/06/13 08:25:31;;;;;;;;;;;;;;;27.68;44.77;97853.08;1772044;77;20223;-91
2022/06/13 08:27:57;;;;;;;;;;;;;;;27.62;43.93;97857.45;1752514;79;20134;-90
2022/06/13 08:30:24;;;;;;;;;;;;;;;27.46;43.13;97852.25;1772217;79;20210;-89
2022/06/13 08:32:50;;;;;;;;;;;;;;;27.82;43.68;97853.89;1776628;79;20215;-91
2022/06/13 08:35:16;;;;;;;;;;;;;;;28.07;42.37;97856.66;1778340;79;21441;-91
2022/06/13 08:37:41;;;;;;;;;;;;;;;28.33;43.02;97845.70;1776127;79;20289;-91
2022/06/13 08:40:08;;;;;;;;;;;;;;;28.75;41.90;97849.56;1774513;79;20208;-89
2022/06/13 08:42:43;;;;;;;;;;;;;;;28.66;42.13;97865.32;1749283;80;20302;-90
2022/06/13 08:45:25;;;;;;;;;;;;;;;28.64;40.74;97861.36;1762083;79;20519;-92
2022/06/13 08:48:03;;;;;;;;;;;;;;;28.61;41.15;97869.91;1774506;78;21046;-91
2022/06/13 08:50:40;;;;;;;;;;;;;;;27.69;42.56;97856.09;1750517;79;20331;-90
2022/06/13 08:53:21;;;;;;;;;;;;;;;27.20;43.30;97860.35;1754580;80;20196;-91
2022/06/13 08:56:06;;;;;;;;;;;;;;;26.70;44.16;97857.36;1773829;79;20286;-90
2022/06/13 08:58:38;;;;;;;;;;;;;;;25.99;45.06;97853.55;1773335;79;20181;-85
2022/06/13 09:01:20;;;;;;;;;;;;;;;25.53;46.08;97857.27;1768118;79;21095;-85
2022/06/13 09:03:58;;;;;;;;;;;;;;;24.88;46.87;97864.10;1781785;78;20255;-85
2022/06/13 09:06:36;;;;;;;;;;;;;;;25.03;47.37;97858.94;1772017;79;20230;-85
2022/06/13 09:09:12;;;;;;;;;;;;;;;25.75;47.08;97853.55;1763898;79;20976;-85
2022/06/13 09:11:47;;;;;;;;;;;;;;;26.56;44.04;97849.73;1758307;79;20188;-85
2022/06/13 09:14:37;;;;;;;;;;;;;;;27.38;42.82;97844.49;1778061;79;21283;-91
2022/06/13 09:17:30;;;;;;;;;;;;;;;28.23;42.52;97848.48;1781075;79;20170;-91
2022/06/13 09:20:18;;;;;;;;;;;;;;;28.92;39.91;97850.11;1770991;78;20194;-92
2022/06/13 09:23:06;;;;;;;;;;;;;;;28.26;39.87;97858.82;1769329;79;20197;-91
2022/06/13 09:25:50;;;;;;;;;;;;;;;28.77;39.74;97852.73;1773339;78;20418;-89
2022/06/13 09:28:32;;;;;;;;;;;;;;;29.37;40.11;97853.66;1760965;79;20550;-91
2022/06/13 09:31:01;;;;;;;;;;;;;;;29.98;39.69;97840.84;1763056;79;20168;-89
2022/06/13 09:33:31;;;;;;;;;;;;;;;29.59;39.81;97836.99;1764439;79;20207;-87
2022/06/13 09:36:05;;;;;;;;;;;;;;;28.45;42.02;97842.28;1778993;79;20658;-90
2022/06/13 09:38:36;;;;;;;;;;;;;;;28.01;42.28;97835.97;1772453;79;20281;-91
2022/06/13 09:41:05;;;;;;;;;;;;;;;27.02;44.32;97839.42;1771633;79;21081;-89
2022/06/13 09:43:47;;;;;;;;;;;;;;;26.65;44.54;97842.44;1772880;79;20132;-90
2022/06/13 09:46:33;;;;;;;;;;;;;;;26.03;46.40;97841.86;1777335;78;20144;-90
2022/06/13 09:49:17;;;;;;;;;;;;;;;26.26;45.46;97845.00;1770435;78;20193;-90
2022/06/13 09:51:52;;;;;;;;;;;;;;;25.54;47.03;97849.16;1749029;79;20232;-89
2022/06/13 09:54:37;;;;;;;;;;;;;;;24.85;48.77;97844.64;1767613;79;21851;-91
2022/06/13 09:57:12;;;;;;;;;;;;;;;24.42;50.57;97857.95;1764869;78;20159;-90
2022/06/13 09:59:44;;;;;;;;;;;;;;;24.28;51.23;97854.97;1766144;78;20511;-91
2022/06/13 10:02:29;;;;;;;;;;;;;;;24.27;51.31;97860.27;1768060;78;20148;-90
2022/06/13 10:05:02;;;;;;;;;;;;;;;24.28;51.94;97862.69;1767222;79;20235;-92
2022/06/13 10:07:48;;;;;;;;;;;;;;;23.84;52.74;97862.39;1763711;79;21737;-90
2022/06/13 10:10:18;;;;;;;;;;;;;;;23.65;52.91;97864.65;1772244;78;20176;-89
2022/06/13 10:12:56;;;;;;;;;;;;;;;23.26;54.04;97870.27;1769375;79;20256;-90
2022/06/13 10:15:28;;;;;;;;;;;;;;;23.29;54.19;97861.82;1777767;79;20153;-88
2022/06/13 10:18:31;;;;;;;;;;;;;;;22.99;54.99;97868.56;1774716;80;20267;-92
2022/06/13 10:21:16;;;;;;;;;;;;;;;22.69;55.34;97874.63;1769463;79;22016;-90
2022/06/13 10:24:17;;;;;;;;;;;;;;;22.39;56.20;97877.70;1773364;79;20424;-89
2022/06/13 10:27:03;;;;;;;;;;;;;;;22.42;56.68;97880.56;1709945;81;20255;-90
2022/06/13 10:29:41;;;;;;;;;;;;;;;22.00;57.45;97874.84;1728895;81;20241;-90
2022/06/13 10:32:27;;;;;;;;;;;;;;;22.10;58.75;97879.03;1733409;81;20450;-89
2022/06/13 10:35:06;;;;;;;;;;;;;;;22.04;58.53;97872.16;1778255;79;21111;-92
2022/06/13 10:37:42;;;;;;;;;;;;;;;22.00;58.81;97878.18;1759847;79;20242;-92
2022/06/13 10:40:08;;;;;;;;;;;;;;;22.00;58.92;97878.18;1742064;79;20188;-93
2022/06/13 10:42:34;;;;;;;;;;;;;;;21.98;59.02;97885.44;1767085;79;20244;-91
2022/06/13 10:45:00;;;;;;;;;;;;;;;21.89;59.30;97875.17;1773827;78;20246;-92
2022/06/13 10:47:31;;;;;;;;;;;;;;;21.88;59.21;97882.64;1770173;79;20970;-92
2022/06/13 10:50:03;;;;;;;;;;;;;;;21.64;60.17;97880.87;1767659;80;20440;-91
2022/06/13 10:52:34;;;;;;;;;;;;;;;21.47;60.44;97881.22;1772365;79;20156;-92
2022/06/13 10:55:08;;;;;;;;;;;;;;;21.35;61.30;97877.94;1754521;79;20682;-91
2022/06/13 10:57:32;;;;;;;;;;;;;;;21.01;62.58;97867.53;1768482;79;20668;-91
2022/06/13 11:00:10;;;;;;;;;;;;;;;21.11;62.93;97883.58;1773611;79;21120;-92
2022/06/13 11:02:36;;;;;;;;;;;;;;;21.07;63.87;97886.80;1755488;80;20227;-88
2022/06/13 11:05:11;;;;;;;;;;;;;;;21.31;64.98;97883.15;1770954;79;20731;-90
2022/06/13 11:07:49;;;;;;;;;;;;;;;21.30;66.33;97885.69;1769479;79;20186;-89
2022/06/13 11:10:37;;;;;;;;;;;;;;;21.39;65.38;97885.73;1773153;79;20448;-90
2022/06/13 11:13:06;;;;;;;;;;;;;;;21.51;64.63;97885.43;1771043;79;21169;-90
2022/06/13 11:24:12;;;;;;;;;;;;;;;21.27;66.37;97894.06;1770720;79;20228;-89
2022/06/13 11:29:24;;;;;;;;;;;;;;;21.20;66.97;97892.48;1760539;79;20446;-90
2022/06/13 11:31:56;;;;;;;;;;;;;;;21.13;65.71;97888.95;1746604;79;20273;-90
2022/06/13 11:34:30;;;;;;;;;;;;;;;21.04;66.81;97880.05;1765791;79;20840;-88
2022/06/13 11:37:02;;;;;;;;;;;;;;;21.07;66.53;97877.16;1773666;79;20218;-88
2022/06/13 11:39:39;;;;;;;;;;;;;;;21.23;65.66;97875.81;1776216;80;21239;-88
2022/06/13 11:42:11;;;;;;;;;;;;;;;21.31;67.65;97868.80;1771247;79;20171;-88
2022/06/13 11:44:40;;;;;;;;;;;;;;;21.43;65.74;97860.22;1765566;79;20156;-89
2022/06/13 11:47:06;;;;;;;;;;;;;;;21.62;65.26;97871.33;1772426;79;20619;-87
2022/06/13 11:49:38;;;;;;;;;;;;;;;21.73;64.36;97855.88;1772659;80;20210;-86
2022/06/13 11:52:14;;;;;;;;;;;;;;;21.71;63.70;97850.50;1767484;79;21058;-86
2022/06/13 11:54:51;;;;;;;;;;;;;;;21.69;64.30;97841.19;1768186;80;20286;-89
2022/06/13 11:57:20;;;;;;;;;;;;;;;21.62;65.27;97834.94;1775109;80;20163;-89
2022/06/13 12:00:04;;;;;;;;;;;;;;;21.62;64.93;97839.08;1772555;79;20136;-88
2022/06/13 12:02:52;;;;;;;;;;;;;;;21.56;67.43;97840.49;1776056;79;21890;-88
2022/06/13 12:05:23;;;;;;;;;;;;;;;21.59;65.69;97851.37;1735503;81;21109;-88
2022/06/13 12:07:55;;;;;;;;;;;;;;;21.57;65.24;97848.98;1787338;79;20312;-88
2022/06/13 12:10:26;;;;;;;;;;;;;;;21.57;66.03;97850.36;1775423;80;20266;-88
2022/06/13 12:12:52;;;;;;;;;;;;;;;21.48;67.79;97840.67;1769480;79;20212;-87
2022/06/13 12:15:19;;;;;;;;;;;;;;;21.30;66.82;97827.81;1776432;80;20754;-88
2022/06/13 12:17:49;;;;;;;;;;;;;;;21.12;71.23;97814.93;1769710;79;21850;-87
2022/06/13 12:20:21;;;;;;;;;;;;;;;20.98;70.97;97804.91;1773603;80;20416;-87
2022/06/13 12:22:50;;;;;;;;;;;;;;;20.79;71.11;97813.84;1775887;79;20718;-87
2022/06/13 12:25:30;;;;;;;;;;;;;;;20.72;72.32;97808.94;1778986;79;20582;-88
2022/06/13 12:28:05;;;;;;;;;;;;;;;20.80;69.58;97812.69;1777716;79;20192;-87
2022/06/13 12:30:51;;;;;;;;;;;;;;;20.91;71.51;97823.98;1757166;79;21032;-87
2022/06/13 12:33:37;;;;;;;;;;;;;;;21.00;70.31;97820.49;1764016;79;20478;-87
2022/06/13 12:36:09;;;;;;;;;;;;;;;21.09;69.99;97802.64;1769104;80;20173;-87
2022/06/13 12:38:45;;;;;;;;;;;;;;;21.30;68.46;97811.28;1773147;79;20185;-86
2022/06/13 12:41:32;;;;;;;;;;;;;;;21.46;69.23;97805.78;1757021;79;20525;-88
2022/06/13 12:44:02;;;;;;;;;;;;;;;21.45;68.02;97799.47;1769876;78;21108;-88
2022/06/13 12:46:31;;;;;;;;;;;;;;;21.50;70.99;97790.91;1756594;80;20324;-87
2022/06/13 12:49:07;;;;;;;;;;;;;;;21.62;67.59;97793.59;1763221;80;20192;-89
2022/06/13 12:51:39;;;;;;;;;;;;;;;21.51;68.10;97788.95;1756483;80;20700;-87
2022/06/13 12:54:34;;;;;;;;;;;;;;;21.41;69.54;97795.81;1762680;79;20160;-87
2022/06/13 12:57:10;;;;;;;;;;;;;;;21.40;69.84;97790.08;1761828;79;21120;-87
2022/06/13 12:59:48;;;;;;;;;;;;;;;21.48;68.67;97792.44;1748037;79;20150;-88
2022/06/13 13:02:35;;;;;;;;;;;;;;;21.42;69.20;97787.76;1791364;78;20407;-88
2022/06/13 13:05:04;;;;;;;;;;;;;;;21.35;68.73;97788.38;1781934;79;20203;-88
2022/06/13 13:07:37;;;;;;;;;;;;;;;21.37;69.70;97787.47;1771949;80;20359;-88
2022/06/13 13:10:18;;;;;;;;;;;;;;;21.46;69.79;97785.11;1772019;79;21103;-89
2022/06/13 13:13:20;;;;;;;;;;;;;;;21.48;69.86;97791.05;1765955;79;20218;-87
2022/06/13 13:15:52;;;;;;;;;;;;;;;21.38;69.81;97791.02;1754549;79;20258;-88
2022/06/13 13:18:33;;;;;;;;;;;;;;;21.32;69.77;97797.95;1774543;79;20594;-87
2022/06/13 13:21:20;;;;;;;;;;;;;;;21.36;69.58;97793.31;1769398;79;20270;-88
2022/06/13 13:23:55;;;;;;;;;;;;;;;21.40;69.19;97788.13;1771381;79;21301;-88
2022/06/13 13:26:36;;;;;;;;;;;;;;;21.46;68.41;97790.63;1771565;79;20141;-87
2022/06/13 13:29:06;;;;;;;;;;;;;;;21.53;68.49;97792.15;1780373;79;20572;-86
2022/06/13 13:31:35;;;;;;;;;;;;;;;21.61;68.00;97800.81;1773054;80;20537;-87
2022/06/13 13:34:21;;;;;;;;;;;;;;;21.59;67.08;97803.13;1777046;79;20412;-89
2022/06/13 13:37:08;;;;;;;;;;;;;;;21.54;66.86;97811.69;1769770;80;21104;-83